Time;durP1;ratioP1;P1;durP2;ratioP2;P2;SDS_P1;SDS_P2;PMS_P1;PMS_P2;Temp;Humidity;BMP_temperature;BMP_pressure;BME280_temperature;BME280_humidity;BME280_pressure;Samples;Min_cycle;Max_cycle;Signal;HPM_P1;HPM_P2
2021/09/20 00:01:17;;;;;;;8.68;6.70;;;10.60;99.90;;;;;;6151214;23;20590;-63
2021/09/20 00:03:43;;;;;;;10.05;6.57;;;10.60;99.90;;;;;;6151327;23;20036;-63
2021/09/20 00:06:09;;;;;;;9.35;6.30;;;10.60;99.90;;;;;;6149182;23;20020;-63
2021/09/20 00:08:34;;;;;;;10.57;6.78;;;10.50;99.90;;;;;;6152600;23;20018;-63
2021/09/20 00:11:00;;;;;;;7.85;6.53;;;10.50;99.90;;;;;;6151754;23;20010;-63
2021/09/20 00:13:26;;;;;;;8.60;5.93;;;10.40;99.90;;;;;;6151438;23;20010;-65
2021/09/20 00:15:51;;;;;;;8.23;6.57;;;10.40;99.90;;;;;;6127134;23;20013;-63
2021/09/20 00:18:17;;;;;;;8.13;6.20;;;10.30;99.90;;;;;;6152042;23;20024;-63
2021/09/20 00:20:42;;;;;;;9.32;7.07;;;10.30;99.90;;;;;;6152601;23;20017;-63
2021/09/20 00:23:08;;;;;;;8.15;7.00;;;10.30;99.90;;;;;;6124501;23;20107;-63
2021/09/20 00:25:33;;;;;;;8.07;6.25;;;10.30;99.90;;;;;;6152666;23;20017;-63
2021/09/20 00:27:59;;;;;;;10.35;7.00;;;10.20;99.90;;;;;;6102148;23;20016;-63
2021/09/20 00:30:24;;;;;;;8.57;7.20;;;10.20;99.90;;;;;;6126574;23;20562;-63
2021/09/20 00:32:50;;;;;;;7.40;6.43;;;10.10;99.90;;;;;;6126012;23;20048;-63
2021/09/20 00:35:16;;;;;;;9.43;7.28;;;10.20;99.90;;;;;;6152204;23;20017;-63
2021/09/20 00:37:41;;;;;;;7.53;6.63;;;10.10;99.90;;;;;;6151825;23;20022;-63
2021/09/20 00:40:08;;;;;;;7.82;6.30;;;10.10;99.90;;;;;;6152490;23;20040;-63
2021/09/20 00:42:33;;;;;;;8.35;6.60;;;10.10;99.90;;;;;;6126406;23;20018;-63
2021/09/20 00:44:59;;;;;;;8.18;6.78;;;10.10;99.90;;;;;;6152002;23;20626;-63
2021/09/20 00:47:25;;;;;;;8.45;6.57;;;10.10;99.90;;;;;;6126673;23;20062;-63
2021/09/20 00:49:50;;;;;;;8.85;6.90;;;10.10;99.90;;;;;;6126011;23;20093;-65
2021/09/20 00:52:16;;;;;;;10.13;7.20;;;10.10;99.90;;;;;;6126888;23;20520;-63
2021/09/20 00:54:42;;;;;;;9.60;6.97;;;10.10;99.90;;;;;;6126073;23;20012;-63
2021/09/20 00:57:08;;;;;;;8.73;6.63;;;10.10;99.90;;;;;;6153265;23;20013;-63
2021/09/20 00:59:34;;;;;;;8.60;7.20;;;10.10;99.90;;;;;;6152487;23;20488;-63
2021/09/20 01:02:00;;;;;;;9.45;7.13;;;10.00;99.90;;;;;;6152790;23;20022;-63
2021/09/20 01:04:25;;;;;;;11.20;7.80;;;9.90;99.90;;;;;;6152710;23;20010;-63
2021/09/20 01:06:51;;;;;;;7.65;6.75;;;9.90;99.90;;;;;;6126410;23;20083;-63
2021/09/20 01:09:17;;;;;;;9.15;7.65;;;9.90;99.90;;;;;;6151498;23;20072;-63
2021/09/20 01:11:43;;;;;;;10.85;7.70;;;9.90;99.90;;;;;;6150753;23;20014;-63
2021/09/20 01:14:09;;;;;;;9.65;7.43;;;9.90;99.90;;;;;;6151146;23;20009;-63
2021/09/20 01:16:34;;;;;;;8.82;6.68;;;9.80;99.90;;;;;;6153617;23;20557;-63
2021/09/20 01:19:00;;;;;;;10.25;7.78;;;9.80;99.90;;;;;;6127270;23;20132;-63
2021/09/20 01:21:25;;;;;;;9.82;7.40;;;9.70;99.90;;;;;;6152497;23;20024;-63
2021/09/20 01:23:51;;;;;;;8.63;6.97;;;9.70;99.90;;;;;;6154109;23;20021;-63
2021/09/20 01:26:17;;;;;;;8.98;6.97;;;9.70;99.90;;;;;;6152352;23;20017;-63
2021/09/20 01:28:43;;;;;;;8.15;7.05;;;9.70;99.90;;;;;;6152831;23;20162;-63
2021/09/20 01:31:11;;;;;;;8.68;7.00;;;9.70;99.90;;;;;;6153197;23;20015;-63
2021/09/20 01:33:37;;;;;;;8.13;6.55;;;9.70;99.90;;;;;;6128062;23;20014;-63
2021/09/20 01:36:03;;;;;;;9.75;6.85;;;9.70;99.90;;;;;;6153815;23;20823;-63
2021/09/20 01:38:29;;;;;;;10.95;7.50;;;9.60;99.90;;;;;;6153709;23;20025;-63
2021/09/20 01:40:54;;;;;;;10.23;7.60;;;9.60;99.90;;;;;;6153949;23;20483;-63
2021/09/20 01:43:20;;;;;;;7.65;6.78;;;9.60;99.90;;;;;;6152923;23;20017;-63
2021/09/20 01:45:46;;;;;;;9.50;7.18;;;9.60;99.90;;;;;;6126050;23;20621;-63
2021/09/20 01:48:13;;;;;;;7.82;6.85;;;9.60;99.90;;;;;;6126572;23;20028;-63
2021/09/20 01:50:39;;;;;;;8.45;7.07;;;9.60;99.90;;;;;;6153054;23;20437;-63
2021/09/20 01:53:05;;;;;;;9.57;6.93;;;9.60;99.90;;;;;;6126035;23;20041;-63
2021/09/20 01:55:30;;;;;;;8.73;6.85;;;9.60;99.90;;;;;;6152935;23;20014;-63
2021/09/20 01:57:56;;;;;;;10.15;7.10;;;9.60;99.90;;;;;;6126960;23;20025;-63
2021/09/20 02:00:22;;;;;;;8.90;7.45;;;9.60;99.90;;;;;;6126596;23;20504;-63
2021/09/20 02:02:47;;;;;;;9.43;7.30;;;9.60;99.90;;;;;;6151989;23;20017;-63
2021/09/20 02:05:13;;;;;;;9.25;7.30;;;9.60;99.90;;;;;;6152764;23;20088;-63
2021/09/20 02:07:41;;;;;;;8.23;7.22;;;9.60;99.90;;;;;;6126553;23;20416;-63
2021/09/20 02:10:08;;;;;;;8.30;7.05;;;9.60;99.90;;;;;;6152718;23;20052;-63
2021/09/20 02:12:34;;;;;;;9.13;7.57;;;9.60;99.90;;;;;;6102431;23;20088;-63
2021/09/20 02:15:01;;;;;;;11.05;7.88;;;9.70;99.90;;;;;;6152102;23;20464;-63
2021/09/20 02:17:26;;;;;;;8.27;7.43;;;9.70;99.90;;;;;;6152692;23;20028;-63
2021/09/20 02:19:52;;;;;;;8.73;7.32;;;9.70;99.90;;;;;;6152810;23;20044;-63
2021/09/20 02:22:17;;;;;;;12.70;9.88;;;9.70;99.90;;;;;;6127200;23;20026;-63
2021/09/20 02:24:43;;;;;;;12.73;9.40;;;9.70;99.90;;;;;;6126788;23;20064;-65
2021/09/20 02:27:09;;;;;;;9.93;8.73;;;9.70;99.90;;;;;;6151401;23;20037;-65
2021/09/20 02:29:34;;;;;;;14.15;10.13;;;9.80;99.90;;;;;;6127269;23;20342;-63
2021/09/20 02:32:00;;;;;;;11.95;9.27;;;9.80;99.90;;;;;;6152743;23;20049;-63
2021/09/20 02:34:26;;;;;;;13.23;9.27;;;9.80;99.90;;;;;;6152996;23;20020;-63
2021/09/20 02:36:51;;;;;;;11.15;8.48;;;9.90;99.90;;;;;;6125935;23;20021;-63
2021/09/20 02:39:17;;;;;;;12.52;9.55;;;9.90;99.90;;;;;;6153277;23;20052;-63
2021/09/20 02:41:43;;;;;;;10.60;8.45;;;10.00;99.90;;;;;;6152711;23;20017;-63
2021/09/20 02:44:08;;;;;;;11.43;8.82;;;10.10;99.90;;;;;;6126838;23;20017;-63
2021/09/20 02:46:34;;;;;;;9.77;8.35;;;10.10;99.90;;;;;;6153153;23;20080;-63
2021/09/20 02:49:00;;;;;;;14.50;9.32;;;10.10;99.90;;;;;;6152481;23;20018;-63
2021/09/20 02:51:26;;;;;;;10.88;8.88;;;10.20;99.90;;;;;;6151857;23;20017;-63
2021/09/20 02:53:51;;;;;;;10.35;7.90;;;10.10;99.90;;;;;;6152599;23;20020;-66
2021/09/20 02:56:17;;;;;;;11.50;8.27;;;10.20;99.90;;;;;;6126171;23;20385;-66
2021/09/20 02:58:42;;;;;;;9.52;7.80;;;10.20;99.90;;;;;;6127103;23;20025;-66
2021/09/20 03:01:08;;;;;;;9.95;7.97;;;10.20;99.90;;;;;;6153036;23;20060;-66
2021/09/20 03:03:33;;;;;;;11.63;8.32;;;10.30;99.90;;;;;;6153118;23;20013;-66
2021/09/20 03:05:59;;;;;;;10.57;8.38;;;10.30;99.90;;;;;;6153295;23;20009;-66
2021/09/20 03:08:24;;;;;;;9.63;8.15;;;10.30;99.90;;;;;;6126008;23;20014;-66
2021/09/20 03:10:50;;;;;;;9.07;8.02;;;10.30;99.90;;;;;;6151934;23;20037;-66
2021/09/20 03:13:15;;;;;;;8.45;7.40;;;10.30;99.90;;;;;;6126513;23;20084;-67
2021/09/20 03:15:41;;;;;;;8.57;7.25;;;10.40;99.90;;;;;;6126073;23;20013;-68
2021/09/20 03:18:07;;;;;;;9.48;7.78;;;10.50;99.90;;;;;;6152552;23;20022;-71
2021/09/20 03:20:32;;;;;;;8.80;7.88;;;10.50;99.90;;;;;;6125978;23;20017;-71
2021/09/20 03:22:58;;;;;;;9.25;7.95;;;10.60;99.90;;;;;;6151436;23;20542;-71
2021/09/20 03:25:23;;;;;;;8.52;7.43;;;10.60;99.90;;;;;;6125588;23;20319;-71
2021/09/20 03:27:49;;;;;;;9.38;8.07;;;10.70;99.90;;;;;;6125452;23;20025;-71
2021/09/20 03:30:16;;;;;;;8.73;7.32;;;10.70;99.90;;;;;;6127507;23;20017;-71
2021/09/20 03:32:43;;;;;;;9.32;7.78;;;10.80;99.90;;;;;;6125798;23;20014;-71
2021/09/20 03:35:11;;;;;;;9.32;7.80;;;10.80;99.90;;;;;;6126645;23;20013;-71
2021/09/20 03:37:37;;;;;;;11.75;8.45;;;10.80;99.90;;;;;;6125934;23;20083;-71
2021/09/20 03:40:04;;;;;;;8.38;7.40;;;10.90;99.90;;;;;;6127294;23;20057;-72
2021/09/20 03:42:30;;;;;;;9.02;7.50;;;10.90;99.90;;;;;;6126923;23;20014;-71
2021/09/20 03:44:55;;;;;;;8.30;7.43;;;10.90;99.90;;;;;;6126627;23;20401;-71
2021/09/20 03:47:21;;;;;;;8.65;7.60;;;11.00;99.90;;;;;;6152829;23;20041;-72
2021/09/20 03:49:47;;;;;;;9.68;7.90;;;11.00;99.90;;;;;;6127004;23;20021;-71
2021/09/20 03:52:12;;;;;;;9.52;7.82;;;11.10;99.90;;;;;;6152752;23;20448;-71
2021/09/20 03:54:38;;;;;;;10.52;8.20;;;11.10;99.90;;;;;;6126554;23;20088;-71
2021/09/20 03:57:03;;;;;;;8.25;7.18;;;11.10;99.90;;;;;;6102448;23;20024;-72
2021/09/20 03:59:30;;;;;;;10.00;7.65;;;11.20;99.90;;;;;;6127140;23;20028;-71
2021/09/20 04:01:56;;;;;;;10.00;8.07;;;11.10;99.90;;;;;;6126662;23;20101;-71
2021/09/20 04:04:22;;;;;;;9.75;7.63;;;11.10;99.90;;;;;;6126901;23;20072;-72
2021/09/20 04:06:48;;;;;;;9.73;7.95;;;11.20;99.90;;;;;;6126233;23;20020;-71
2021/09/20 04:09:13;;;;;;;11.05;8.30;;;11.20;99.90;;;;;;6152758;23;20025;-71
2021/09/20 04:11:40;;;;;;;11.15;8.43;;;11.20;99.90;;;;;;6127111;23;20422;-71
2021/09/20 04:14:08;;;;;;;13.57;8.68;;;11.30;99.90;;;;;;6101887;23;20014;-71
2021/09/20 04:16:33;;;;;;;13.25;8.88;;;11.30;99.90;;;;;;6101160;23;20017;-71
2021/09/20 04:18:59;;;;;;;9.23;8.15;;;11.30;99.90;;;;;;6126671;23;20024;-71
2021/09/20 04:21:24;;;;;;;11.10;8.48;;;11.30;99.90;;;;;;6127013;23;20096;-71
2021/09/20 04:23:50;;;;;;;9.32;8.40;;;11.30;99.90;;;;;;6125096;23;20021;-72
2021/09/20 04:26:15;;;;;;;9.15;8.10;;;11.30;99.90;;;;;;6125797;23;20021;-71
2021/09/20 04:28:41;;;;;;;9.25;8.35;;;11.40;99.90;;;;;;6126549;23;20017;-71
2021/09/20 04:31:07;;;;;;;9.90;8.25;;;11.40;99.90;;;;;;6125951;23;20369;-71
2021/09/20 04:33:32;;;;;;;10.82;8.13;;;11.40;99.90;;;;;;6125271;23;20013;-71
2021/09/20 04:35:58;;;;;;;9.32;7.32;;;11.40;99.90;;;;;;6125485;23;20021;-70
2021/09/20 04:38:23;;;;;;;10.10;8.18;;;11.40;99.90;;;;;;6151945;23;20017;-71
2021/09/20 04:40:49;;;;;;;9.07;8.10;;;11.40;99.90;;;;;;6101887;23;20028;-71
2021/09/20 04:43:15;;;;;;;10.48;8.18;;;11.50;99.90;;;;;;6124927;23;20029;-71
2021/09/20 04:45:42;;;;;;;8.68;7.30;;;11.50;99.90;;;;;;6125796;23;20024;-71
2021/09/20 04:48:11;;;;;;;12.32;8.30;;;11.50;99.90;;;;;;6125438;23;20024;-71
2021/09/20 04:50:42;;;;;;;11.50;8.27;;;11.50;99.90;;;;;;6127270;23;20018;-71
2021/09/20 04:53:09;;;;;;;9.38;7.65;;;11.50;99.90;;;;;;6128386;23;20449;-71
2021/09/20 04:55:35;;;;;;;8.82;7.93;;;11.50;99.90;;;;;;6126594;23;20445;-71
2021/09/20 04:58:08;;;;;;;9.82;8.18;;;11.50;99.90;;;;;;6128616;23;20013;-71
2021/09/20 05:00:35;;;;;;;9.02;8.10;;;11.50;99.90;;;;;;6152707;23;20014;-71
2021/09/20 05:03:01;;;;;;;10.05;7.80;;;11.50;99.90;;;;;;6126396;23;20013;-70
2021/09/20 05:05:26;;;;;;;9.35;7.25;;;11.50;99.90;;;;;;6127628;23;20014;-71
2021/09/20 05:07:52;;;;;;;9.02;6.80;;;11.50;99.90;;;;;;6128061;23;20345;-71
2021/09/20 05:10:18;;;;;;;10.07;7.47;;;11.60;99.90;;;;;;6153338;23;20059;-71
2021/09/20 05:12:44;;;;;;;10.10;8.90;;;11.60;99.90;;;;;;6125584;23;20877;-71
2021/09/20 05:15:10;;;;;;;10.93;8.52;;;11.60;99.90;;;;;;6127894;23;20023;-71
2021/09/20 05:17:37;;;;;;;10.43;8.35;;;11.50;99.90;;;;;;6126042;23;20014;-71
2021/09/20 05:20:04;;;;;;;10.23;8.25;;;11.60;99.90;;;;;;6152649;23;20025;-71
2021/09/20 05:22:30;;;;;;;7.90;6.78;;;11.60;99.90;;;;;;6127712;23;20088;-71
2021/09/20 05:24:55;;;;;;;10.43;7.85;;;11.60;99.90;;;;;;6126915;23;20093;-72
2021/09/20 05:27:21;;;;;;;11.85;8.35;;;11.60;99.90;;;;;;6127436;23;20024;-72
2021/09/20 05:29:46;;;;;;;9.20;8.23;;;11.60;99.90;;;;;;6126203;23;20034;-72
2021/09/20 05:32:12;;;;;;;9.18;7.25;;;11.60;99.90;;;;;;6126201;23;20430;-72
2021/09/20 05:34:37;;;;;;;9.40;7.57;;;11.60;99.90;;;;;;6127692;23;20330;-67
2021/09/20 05:37:03;;;;;;;8.15;7.35;;;11.70;99.90;;;;;;6152722;23;20084;-66
2021/09/20 05:39:30;;;;;;;8.85;7.35;;;11.70;99.90;;;;;;6153513;23;20092;-67
2021/09/20 05:41:56;;;;;;;10.43;7.63;;;11.70;99.90;;;;;;6102248;23;20018;-67
2021/09/20 05:44:21;;;;;;;8.93;7.85;;;11.70;99.90;;;;;;6152711;23;20317;-67
2021/09/20 05:46:47;;;;;;;8.40;7.18;;;11.70;99.90;;;;;;6152450;23;20020;-67
2021/09/20 05:49:13;;;;;;;8.80;7.03;;;11.70;99.90;;;;;;6152984;23;20025;-68
2021/09/20 05:51:38;;;;;;;7.60;6.75;;;11.80;99.90;;;;;;6153492;23;20014;-68
2021/09/20 05:54:04;;;;;;;9.13;7.80;;;11.80;99.90;;;;;;6152346;23;20120;-67
2021/09/20 05:56:29;;;;;;;13.02;7.28;;;11.80;99.90;;;;;;6126501;23;20009;-67
2021/09/20 05:58:55;;;;;;;7.72;7.00;;;11.80;99.90;;;;;;6153355;23;20044;-67
2021/09/20 06:01:20;;;;;;;8.60;7.10;;;11.80;99.90;;;;;;6101979;23;20020;-67
2021/09/20 06:03:47;;;;;;;8.38;6.93;;;11.80;99.90;;;;;;6153881;23;20018;-67
2021/09/20 06:06:12;;;;;;;8.68;6.88;;;11.80;99.90;;;;;;6151540;23;20009;-67
2021/09/20 06:08:38;;;;;;;10.88;7.40;;;11.80;99.90;;;;;;6152268;23;20096;-67
2021/09/20 06:11:04;;;;;;;8.15;6.85;;;11.90;99.90;;;;;;6151450;23;20021;-67
2021/09/20 06:13:30;;;;;;;7.80;7.00;;;11.90;99.90;;;;;;6126123;23;20017;-67
2021/09/20 06:15:55;;;;;;;7.93;6.88;;;11.90;99.90;;;;;;6126627;23;20010;-67
2021/09/20 06:18:21;;;;;;;10.88;7.03;;;12.00;99.90;;;;;;6126133;23;20029;-67
2021/09/20 06:20:46;;;;;;;7.57;6.82;;;12.00;99.90;;;;;;6125082;23;20029;-67
2021/09/20 06:23:12;;;;;;;11.10;7.07;;;12.00;99.90;;;;;;6153454;23;20088;-67
2021/09/20 06:25:38;;;;;;;7.95;6.80;;;12.10;99.90;;;;;;6150594;23;20017;-67
2021/09/20 06:28:04;;;;;;;9.48;6.53;;;12.10;99.90;;;;;;6152567;23;20017;-67
2021/09/20 06:30:30;;;;;;;8.85;6.55;;;12.10;99.90;;;;;;6125623;23;20052;-67
2021/09/20 06:32:55;;;;;;;12.45;7.00;;;12.20;99.90;;;;;;6126147;23;20410;-67
2021/09/20 06:35:21;;;;;;;7.15;6.47;;;12.20;99.90;;;;;;6151169;23;20009;-67
2021/09/20 06:37:47;;;;;;;6.72;6.05;;;12.30;99.90;;;;;;6151742;23;20021;-67
2021/09/20 06:40:13;;;;;;;8.50;6.78;;;12.30;99.90;;;;;;6151345;23;20022;-67
2021/09/20 06:42:39;;;;;;;8.15;5.93;;;12.30;99.90;;;;;;6152073;23;20120;-67
2021/09/20 06:45:05;;;;;;;7.28;6.13;;;12.30;99.90;;;;;;6152631;23;20421;-67
2021/09/20 06:47:31;;;;;;;9.40;6.30;;;12.40;99.90;;;;;;6152025;23;20020;-71
2021/09/20 06:49:57;;;;;;;8.30;6.18;;;12.40;99.90;;;;;;6151818;23;20021;-71
2021/09/20 06:52:23;;;;;;;6.75;6.07;;;12.50;99.90;;;;;;6153110;23;20012;-71
2021/09/20 06:54:48;;;;;;;6.85;5.88;;;12.60;99.90;;;;;;6100569;23;20098;-70
2021/09/20 06:57:14;;;;;;;7.10;6.15;;;12.60;99.90;;;;;;6152101;23;20053;-70
2021/09/20 06:59:40;;;;;;;8.57;5.85;;;12.70;99.90;;;;;;6125448;23;20021;-70
2021/09/20 07:02:05;;;;;;;7.65;5.75;;;12.70;99.90;;;;;;6126395;23;20033;-70
2021/09/20 07:04:32;;;;;;;7.95;5.32;;;12.80;99.90;;;;;;6101490;23;20028;-69
2021/09/20 07:06:57;;;;;;;6.22;4.97;;;12.90;99.90;;;;;;6127216;23;20037;-68
2021/09/20 07:09:24;;;;;;;8.65;5.47;;;13.00;99.90;;;;;;6151601;23;20020;-68
2021/09/20 07:11:50;;;;;;;6.15;5.43;;;13.10;99.90;;;;;;6126770;23;20017;-69
2021/09/20 07:14:15;;;;;;;7.70;6.03;;;13.10;99.90;;;;;;6126866;23;20009;-69
2021/09/20 07:16:42;;;;;;;7.20;5.13;;;13.20;99.90;;;;;;6126718;23;20509;-70
2021/09/20 07:19:08;;;;;;;5.60;4.85;;;13.20;99.90;;;;;;6101665;23;20501;-69
2021/09/20 07:21:34;;;;;;;6.40;5.28;;;13.30;99.90;;;;;;6125742;23;20028;-70
2021/09/20 07:23:59;;;;;;;10.55;5.13;;;13.40;99.90;;;;;;6101282;23;20429;-69
2021/09/20 07:26:27;;;;;;;8.15;4.93;;;13.50;99.90;;;;;;6126431;23;20096;-69
2021/09/20 07:28:53;;;;;;;7.05;4.60;;;13.50;99.90;;;;;;6127542;23;20017;-68
2021/09/20 07:31:19;;;;;;;6.32;4.60;;;13.50;99.90;;;;;;6125844;23;20084;-68
2021/09/20 07:33:45;;;;;;;6.75;4.75;;;13.60;99.90;;;;;;6101172;23;20303;-69
2021/09/20 07:36:11;;;;;;;5.60;4.45;;;13.60;99.90;;;;;;6125691;23;20088;-68
2021/09/20 07:38:37;;;;;;;5.57;4.72;;;13.80;99.90;;;;;;6126557;23;20341;-66
2021/09/20 07:41:04;;;;;;;6.38;4.90;;;13.80;99.90;;;;;;6126000;23;20014;-65
2021/09/20 07:43:30;;;;;;;4.97;4.28;;;13.90;99.90;;;;;;6152982;23;20009;-65
2021/09/20 07:45:56;;;;;;;6.53;4.88;;;13.90;99.90;;;;;;6153019;23;20372;-65
2021/09/20 07:48:21;;;;;;;5.47;4.80;;;14.00;99.90;;;;;;6126559;23;20036;-65
2021/09/20 07:50:47;;;;;;;5.88;4.53;;;14.10;99.90;;;;;;6152657;23;20053;-65
2021/09/20 07:53:13;;;;;;;6.40;4.80;;;14.10;99.90;;;;;;6152860;23;20028;-65
2021/09/20 07:55:39;;;;;;;5.65;4.78;;;14.20;99.90;;;;;;6101748;23;20032;-65
2021/09/20 07:58:06;;;;;;;4.55;4.05;;;14.20;99.90;;;;;;6126690;23;20488;-66
2021/09/20 08:00:34;;;;;;;5.20;4.70;;;14.30;99.90;;;;;;6153204;23;20374;-65
2021/09/20 08:03:00;;;;;;;5.45;4.47;;;14.30;99.90;;;;;;6152518;23;20018;-73
2021/09/20 08:05:26;;;;;;;6.93;4.30;;;14.40;99.90;;;;;;6126143;23;20076;-74
2021/09/20 08:07:52;;;;;;;7.68;4.50;;;14.40;99.90;;;;;;6125392;23;20023;-73
2021/09/20 08:10:18;;;;;;;4.78;4.15;;;14.40;99.90;;;;;;6129109;23;20024;-74
2021/09/20 08:12:43;;;;;;;5.70;4.20;;;14.50;99.90;;;;;;6128662;23;20314;-74
2021/09/20 08:15:09;;;;;;;5.25;4.50;;;14.50;99.90;;;;;;6126617;23;20021;-74
2021/09/20 08:17:35;;;;;;;5.93;4.05;;;14.60;99.90;;;;;;6150223;23;20017;-74
2021/09/20 08:20:03;;;;;;;5.60;3.80;;;14.70;99.90;;;;;;6125755;23;20018;-74
2021/09/20 08:22:28;;;;;;;4.50;4.10;;;14.70;99.90;;;;;;6125509;23;20337;-74
2021/09/20 08:24:54;;;;;;;4.70;4.00;;;14.70;99.90;;;;;;6127199;23;20143;-77
2021/09/20 08:27:22;;;;;;;4.93;4.15;;;14.80;99.90;;;;;;6128600;23;20029;-77
2021/09/20 08:29:48;;;;;;;4.72;4.05;;;14.60;99.90;;;;;;6128383;23;20021;-76
2021/09/20 08:32:14;;;;;;;6.47;3.90;;;14.80;99.90;;;;;;6128035;23;20337;-77
2021/09/20 08:34:39;;;;;;;6.15;4.10;;;14.80;99.90;;;;;;6127957;23;20017;-76
2021/09/20 08:37:05;;;;;;;4.85;3.88;;;14.80;99.90;;;;;;6126974;23;20546;-77
2021/09/20 08:39:31;;;;;;;6.75;4.03;;;14.80;99.90;;;;;;6103030;23;20021;-77
2021/09/20 08:41:56;;;;;;;9.23;4.00;;;14.70;99.90;;;;;;6102549;23;20028;-77
2021/09/20 08:44:22;;;;;;;5.22;3.53;;;14.70;99.90;;;;;;6102791;23;20072;-77
2021/09/20 08:46:51;;;;;;;4.32;3.92;;;14.70;99.90;;;;;;6126979;23;20017;-77
2021/09/20 08:49:22;;;;;;;4.30;3.90;;;14.80;99.90;;;;;;6128067;23;20017;-77
2021/09/20 08:51:50;;;;;;;5.10;3.83;;;14.80;99.90;;;;;;6153164;23;20028;-70
2021/09/20 08:54:17;;;;;;;6.07;3.60;;;14.90;99.90;;;;;;6127407;23;20065;-70
2021/09/20 08:56:43;;;;;;;4.90;3.50;;;15.10;99.90;;;;;;6126931;23;20021;-70
2021/09/20 08:59:09;;;;;;;6.05;3.38;;;15.20;99.90;;;;;;6126776;23;20084;-71
2021/09/20 09:01:35;;;;;;;3.45;3.05;;;15.20;99.90;;;;;;6102769;23;20013;-70
2021/09/20 09:04:33;;;;;;;4.30;3.05;;;15.20;99.90;;;;;;6125974;23;20013;-70
2021/09/20 09:07:14;;;;;;;4.63;3.10;;;15.30;99.90;;;;;;6126878;23;20528;-71
2021/09/20 09:09:50;;;;;;;3.53;2.83;;;15.40;99.90;;;;;;6126896;23;20018;-71
2021/09/20 09:12:25;;;;;;;4.82;3.20;;;15.60;99.90;;;;;;6126160;23;20009;-71
2021/09/20 09:14:53;;;;;;;4.75;3.20;;;15.60;99.90;;;;;;6125970;23;20021;-70
2021/09/20 09:17:23;;;;;;;4.72;2.70;;;15.80;99.90;;;;;;6126302;23;20024;-71
2021/09/20 09:19:50;;;;;;;6.28;3.20;;;15.70;99.90;;;;;;6126636;23;20099;-70
2021/09/20 09:22:16;;;;;;;4.18;2.85;;;15.80;99.90;;;;;;6124635;23;20097;-71
2021/09/20 09:25:00;;;;;;;4.80;2.72;;;15.80;99.90;;;;;;6152896;23;20055;-71
2021/09/20 09:27:27;;;;;;;3.35;2.00;;;16.00;99.90;;;;;;6126329;23;20025;-70
2021/09/20 09:30:05;;;;;;;5.03;2.55;;;16.10;99.90;;;;;;6126327;23;20013;-71
2021/09/20 09:32:30;;;;;;;4.05;2.58;;;16.30;99.90;;;;;;6126413;23;20464;-70
2021/09/20 09:34:59;;;;;;;3.78;2.63;;;16.30;99.90;;;;;;6127268;23;20013;-70
2021/09/20 09:37:25;;;;;;;4.20;2.30;;;16.40;99.90;;;;;;6127042;23;20017;-70
2021/09/20 09:40:09;;;;;;;4.22;2.90;;;16.50;99.90;;;;;;6125487;23;20050;-71
2021/09/20 09:42:37;;;;;;;3.85;2.42;;;16.70;99.90;;;;;;6126496;23;20013;-71
2021/09/20 09:45:26;;;;;;;4.78;2.42;;;16.80;99.90;;;;;;6127225;23;20020;-71
2021/09/20 09:48:06;;;;;;;3.65;2.30;;;16.90;99.90;;;;;;6126842;23;20020;-71
2021/09/20 09:50:33;;;;;;;2.83;2.10;;;16.80;99.90;;;;;;6127084;23;20017;-71
2021/09/20 09:52:59;;;;;;;3.55;2.15;;;16.70;99.20;;;;;;6127624;23;20053;-71
2021/09/20 09:55:25;;;;;;;4.97;2.50;;;16.70;99.50;;;;;;6103033;23;20017;-67
2021/09/20 09:57:52;;;;;;;3.00;2.20;;;16.60;99.90;;;;;;6103474;23;20049;-67
2021/09/20 10:00:20;;;;;;;3.58;2.30;;;16.60;99.90;;;;;;6154085;23;20445;-67
2021/09/20 10:02:49;;;;;;;4.10;2.08;;;16.70;99.90;;;;;;6127225;23;20513;-67
2021/09/20 10:05:20;;;;;;;2.83;2.10;;;16.90;99.90;;;;;;6153369;23;20022;-67
2021/09/20 10:07:48;;;;;;;7.22;2.10;;;16.90;99.30;;;;;;6153401;23;20480;-67
2021/09/20 10:10:17;;;;;;;4.38;2.03;;;16.90;99.70;;;;;;6126703;23;20437;-67
2021/09/20 10:12:45;;;;;;;2.97;1.83;;;16.90;99.90;;;;;;6127225;23;20014;-67
2021/09/20 10:15:13;;;;;;;2.45;1.70;;;16.90;99.90;;;;;;6153813;23;20020;-67
2021/09/20 10:17:39;;;;;;;3.95;1.90;;;16.90;98.40;;;;;;6153653;23;20112;-67
2021/09/20 10:20:08;;;;;;;3.38;2.10;;;16.90;99.10;;;;;;6153545;23;20061;-67
2021/09/20 10:22:33;;;;;;;3.10;1.73;;;17.10;98.30;;;;;;6152276;23;20640;-67
2021/09/20 10:25:00;;;;;;;3.13;1.80;;;17.30;99.20;;;;;;6152888;23;20017;-67
2021/09/20 10:27:28;;;;;;;3.83;1.98;;;17.30;99.30;;;;;;6152720;23;20021;-66
2021/09/20 10:30:10;;;;;;;3.38;1.90;;;17.40;97.40;;;;;;6153497;23;20017;-67
2021/09/20 10:32:40;;;;;;;2.58;1.90;;;17.40;97.40;;;;;;6153424;23;20401;-67
2021/09/20 10:35:36;;;;;;;2.97;2.13;;;17.50;99.90;;;;;;6153571;23;20017;-67
2021/09/20 10:38:20;;;;;;;3.47;1.85;;;17.60;99.60;;;;;;6127460;23;20049;-67
2021/09/20 10:41:17;;;;;;;3.25;1.58;;;17.80;98.60;;;;;;6153402;23;20333;-67
2021/09/20 10:43:45;;;;;;;5.28;1.58;;;17.80;95.30;;;;;;6152992;23;20023;-67
2021/09/20 10:46:22;;;;;;;3.25;1.38;;;17.70;94.30;;;;;;6152565;23;20021;-67
2021/09/20 10:48:55;;;;;;;2.22;1.50;;;17.70;92.90;;;;;;6126405;23;20018;-67
2021/09/20 10:51:30;;;;;;;3.72;1.50;;;17.80;95.10;;;;;;6126541;23;20337;-67
2021/09/20 10:54:24;;;;;;;1.50;1.20;;;18.10;97.20;;;;;;6153570;23;20076;-67
2021/09/20 10:57:14;;;;;;;1.85;1.35;;;18.10;95.30;;;;;;6153947;23;20021;-66
2021/09/20 10:59:40;;;;;;;2.10;1.05;;;18.20;95.20;;;;;;6101845;23;20076;-67
2021/09/20 11:02:32;;;;;;;2.15;1.30;;;18.40;97.50;;;;;;6126188;23;20009;-67
2021/09/20 11:05:08;;;;;;;;;;;18.40;91.80;;;;;;6127606;23;20017;-67
2021/09/20 11:07:43;;;;;;;2.00;1.20;;;18.50;91.70;;;;;;6126308;23;19979;-67
2021/09/20 11:10:09;;;;;;;3.55;1.20;;;18.60;94.40;;;;;;6126908;23;20023;-67
2021/09/20 11:12:53;;;;;;;2.95;1.17;;;18.60;90.90;;;;;;6102034;23;20014;-67
2021/09/20 11:15:20;;;;;;;2.00;1.13;;;18.60;95.10;;;;;;6126814;23;20018;-67
2021/09/20 11:17:47;;;;;;;3.22;1.25;;;18.50;82.90;;;;;;6151199;23;20017;-67
2021/09/20 11:20:27;;;;;;;1.55;1.30;;;18.40;91.00;;;;;;6126443;23;20092;-67
2021/09/20 11:23:22;;;;;;;1.70;0.90;;;18.50;93.50;;;;;;6125522;23;20021;-71
2021/09/20 11:26:11;;;;;;;1.40;0.93;;;18.30;87.80;;;;;;6126461;23;20067;-71
2021/09/20 11:28:41;;;;;;;1.40;0.98;;;18.40;89.20;;;;;;6126141;23;20021;-71
2021/09/20 11:31:06;;;;;;;2.40;1.17;;;18.10;86.40;;;;;;6125483;23;20016;-72
2021/09/20 11:33:40;;;;;;;1.77;1.13;;;18.30;95.30;;;;;;6124566;23;20013;-72
2021/09/20 11:36:35;;;;;;;2.60;1.30;;;18.20;91.90;;;;;;6124456;23;20009;-72
2021/09/20 11:39:16;;;;;;;2.10;1.20;;;17.90;92.80;;;;;;6106333;23;20014;-71
2021/09/20 11:41:46;;;;;;;2.95;1.23;;;17.90;92.50;;;;;;6125374;23;20013;-71
2021/09/20 11:44:15;;;;;;;2.95;1.25;;;17.80;95.30;;;;;;6125074;23;20021;-72
2021/09/20 11:46:41;;;;;;;1.52;1.00;;;17.80;98.40;;;;;;6125728;23;20081;-71
2021/09/20 11:49:13;;;;;;;1.30;1.17;;;17.80;94.00;;;;;;6124692;23;20005;-72
2021/09/20 11:51:38;;;;;;;1.42;1.30;;;17.80;96.00;;;;;;6125058;23;20084;-72
2021/09/20 11:54:05;;;;;;;3.10;1.17;;;17.80;96.90;;;;;;6100651;23;20646;-72
2021/09/20 11:56:31;;;;;;;2.35;1.10;;;17.70;94.00;;;;;;6122122;23;20085;-71
2021/09/20 11:58:59;;;;;;;2.78;1.10;;;17.70;95.20;;;;;;6124357;23;20028;-71
2021/09/20 12:01:27;;;;;;;1.60;1.20;;;17.90;94.50;;;;;;6125169;23;20006;-70
2021/09/20 12:03:54;;;;;;;3.53;1.30;;;18.00;98.00;;;;;;6125383;23;20434;-72
2021/09/20 12:06:29;;;;;;;3.60;1.35;;;18.10;97.90;;;;;;6124078;23;20021;-71
2021/09/20 12:08:57;;;;;;;2.95;1.20;;;18.10;97.60;;;;;;6125266;23;20014;-71
2021/09/20 12:11:24;;;;;;;2.55;1.45;;;18.30;96.40;;;;;;6124043;23;20076;-70
2021/09/20 12:13:50;;;;;;;3.35;0.98;;;18.20;94.80;;;;;;6151035;23;20017;-69
2021/09/20 12:16:15;;;;;;;4.07;1.20;;;18.30;93.40;;;;;;6124386;23;20025;-69
2021/09/20 12:18:41;;;;;;;1.63;1.20;;;18.20;94.60;;;;;;6124525;23;20024;-69
2021/09/20 12:21:09;;;;;;;3.08;1.35;;;18.00;94.80;;;;;;6125180;23;20026;-69
2021/09/20 12:23:44;;;;;;;3.83;0.95;;;17.90;95.30;;;;;;6151141;23;20014;-69
2021/09/20 12:26:10;;;;;;;3.00;1.27;;;17.90;94.70;;;;;;6124408;23;20453;-68
2021/09/20 12:28:57;;;;;;;1.10;0.90;;;18.10;94.40;;;;;;6101509;23;20026;-69
2021/09/20 12:31:38;;;;;;;2.65;1.20;;;18.20;92.80;;;;;;6124552;23;20444;-69
2021/09/20 12:34:09;;;;;;;3.35;1.30;;;18.30;92.60;;;;;;6150808;23;20013;-70
2021/09/20 12:36:57;;;;;;;3.05;1.20;;;18.50;93.10;;;;;;6124732;23;20441;-71
2021/09/20 12:39:26;;;;;;;1.27;0.88;;;18.70;91.90;;;;;;6124404;23;20092;-71
2021/09/20 12:41:58;;;;;;;2.75;1.42;;;18.90;90.50;;;;;;6150803;23;20017;-71
2021/09/20 12:44:37;;;;;;;2.78;1.45;;;19.00;88.60;;;;;;6124077;23;20014;-70
2021/09/20 12:47:04;;;;;;;2.67;1.30;;;18.70;87.30;;;;;;6124785;23;20453;-70
2021/09/20 12:49:30;;;;;;;1.98;1.20;;;18.60;90.00;;;;;;6099745;23;20018;-70